createdAt,value
2018-03-27T00:00:27.184Z,100.00
2018-03-27T00:02:54.814Z,100.00
2018-03-27T00:05:22.436Z,100.00
2018-03-27T00:07:50.062Z,100.00
2018-03-27T00:10:17.671Z,100.00
2018-03-27T00:12:45.371Z,100.00
2018-03-27T00:15:12.966Z,100.00
2018-03-27T00:17:40.587Z,100.00
2018-03-27T00:20:08.197Z,100.00
2018-03-27T00:22:35.832Z,100.00
2018-03-27T00:25:03.438Z,100.00
2018-03-27T00:27:42.736Z,100.00
2018-03-27T00:30:22.044Z,100.00
2018-03-27T00:33:01.555Z,100.00
2018-03-27T00:35:40.999Z,100.00
2018-03-27T00:38:20.368Z,100.00
2018-03-27T00:40:47.423Z,100.00
2018-03-27T00:43:15.052Z,100.00
2018-03-27T00:45:42.686Z,100.00
2018-03-27T00:48:10.305Z,100.00
2018-03-27T00:50:37.994Z,100.00
2018-03-27T00:53:05.591Z,100.00
2018-03-27T00:55:33.219Z,100.00
2018-03-27T00:58:00.817Z,100.00
2018-03-27T01:00:28.442Z,100.00
2018-03-27T01:02:56.032Z,100.00
2018-03-27T01:05:23.668Z,100.00
2018-03-27T01:07:51.254Z,100.00
2018-03-27T01:10:18.889Z,100.00
2018-03-27T01:12:46.532Z,100.00
2018-03-27T01:15:14.146Z,100.00
2018-03-27T01:17:42.258Z,100.00
2018-03-27T01:20:09.904Z,100.00
2018-03-27T01:22:37.630Z,100.00
2018-03-27T01:25:05.267Z,100.00
2018-03-27T01:27:32.883Z,100.00
2018-03-27T01:30:00.510Z,100.00
2018-03-27T01:32:28.102Z,100.00
2018-03-27T01:34:55.697Z,100.00
2018-03-27T01:37:23.335Z,100.00
2018-03-27T01:39:50.969Z,100.00
2018-03-27T01:42:18.604Z,100.00
2018-03-27T01:44:46.202Z,100.00
2018-03-27T01:47:13.829Z,100.00
2018-03-27T01:49:41.417Z,100.00
2018-03-27T01:52:09.047Z,100.00
2018-03-27T01:54:36.651Z,100.00
2018-03-27T01:57:04.299Z,100.00
2018-03-27T01:59:31.891Z,100.00
2018-03-27T02:01:59.539Z,100.00
2018-03-27T02:04:27.179Z,100.00
2018-03-27T02:06:54.815Z,100.00
2018-03-27T02:09:22.458Z,100.00
2018-03-27T02:11:55.756Z,100.00
2018-03-27T02:14:28.775Z,100.00
2018-03-27T02:17:01.988Z,100.00
2018-03-27T02:19:34.994Z,100.00
2018-03-27T02:22:02.061Z,100.00
2018-03-27T02:24:30.475Z,100.00
2018-03-27T02:26:58.117Z,100.00
2018-03-27T02:29:25.720Z,100.00
2018-03-27T02:31:53.352Z,100.00
2018-03-27T02:34:20.951Z,100.00
2018-03-27T02:36:48.583Z,100.00
2018-03-27T02:39:16.178Z,100.00
2018-03-27T02:41:44.665Z,100.00
2018-03-27T02:44:12.283Z,100.00
2018-03-27T02:46:39.913Z,100.00
2018-03-27T02:49:07.500Z,100.00
2018-03-27T02:51:35.197Z,100.00
2018-03-27T02:54:02.804Z,100.00
2018-03-27T02:56:30.449Z,100.00
2018-03-27T02:58:58.060Z,100.00
2018-03-27T03:01:25.733Z,100.00
2018-03-27T03:03:53.386Z,100.00
2018-03-27T03:06:20.995Z,100.00
2018-03-27T03:08:48.615Z,100.00
2018-03-27T03:11:16.314Z,100.00
2018-03-27T03:13:44.038Z,100.00
2018-03-27T03:16:11.620Z,100.00
2018-03-27T03:18:39.252Z,100.00
2018-03-27T03:21:06.846Z,100.00
2018-03-27T03:23:34.470Z,100.00
2018-03-27T03:26:02.065Z,100.00
2018-03-27T03:28:29.686Z,100.00
2018-03-27T03:30:57.284Z,100.00
2018-03-27T03:33:24.918Z,100.00
2018-03-27T03:35:52.533Z,100.00
2018-03-27T03:38:20.169Z,100.00
2018-03-27T03:40:47.877Z,100.00
2018-03-27T03:43:15.499Z,100.00
2018-03-27T03:45:43.112Z,100.00
2018-03-27T03:48:10.856Z,100.00
2018-03-27T03:50:38.490Z,100.00
2018-03-27T03:53:06.213Z,100.00
2018-03-27T03:55:33.795Z,100.00
2018-03-27T03:58:01.441Z,100.00
2018-03-27T04:00:29.153Z,100.00
2018-03-27T04:02:56.740Z,100.00
2018-03-27T04:05:24.452Z,100.00
2018-03-27T04:07:52.051Z,100.00
2018-03-27T04:10:19.745Z,100.00
2018-03-27T04:12:47.390Z,100.00
2018-03-27T04:15:15.063Z,100.00
2018-03-27T04:17:42.676Z,100.00
2018-03-27T04:20:10.303Z,100.00
2018-03-27T04:22:37.892Z,100.00
2018-03-27T04:25:05.571Z,100.00
2018-03-27T04:27:33.171Z,100.00
2018-03-27T04:30:00.872Z,100.00
2018-03-27T04:32:28.509Z,100.00
2018-03-27T04:34:56.155Z,100.00
2018-03-27T04:37:23.827Z,100.00
2018-03-27T04:39:51.479Z,100.00
2018-03-27T04:42:19.086Z,100.00
2018-03-27T04:44:46.707Z,100.00
2018-03-27T04:47:14.317Z,100.00
2018-03-27T04:49:41.961Z,100.00
2018-03-27T04:52:09.623Z,100.00
2018-03-27T04:54:37.244Z,100.00
2018-03-27T04:57:04.836Z,100.00
2018-03-27T04:59:32.479Z,100.00
2018-03-27T05:02:00.065Z,100.00
2018-03-27T05:04:27.712Z,100.00
2018-03-27T05:06:55.371Z,100.00
2018-03-27T05:09:22.980Z,100.00
2018-03-27T05:11:50.602Z,100.00
2018-03-27T05:14:18.213Z,100.00
2018-03-27T05:16:45.850Z,100.00
2018-03-27T05:19:13.499Z,100.00
2018-03-27T05:21:41.190Z,100.00
2018-03-27T05:24:08.863Z,100.00
2018-03-27T05:26:36.520Z,100.00
2018-03-27T05:29:04.180Z,100.00
2018-03-27T05:31:31.875Z,100.00
2018-03-27T05:33:59.540Z,100.00
2018-03-27T05:36:27.273Z,100.00
2018-03-27T05:38:54.904Z,100.00
2018-03-27T05:41:22.566Z,100.00
2018-03-27T05:43:50.184Z,100.00
2018-03-27T05:46:17.905Z,100.00
2018-03-27T05:48:45.582Z,100.00
2018-03-27T05:51:13.272Z,100.00
2018-03-27T05:53:40.950Z,100.00
2018-03-27T05:56:08.614Z,100.00
2018-03-27T05:58:36.291Z,100.00
2018-03-27T06:01:04.025Z,100.00
2018-03-27T06:03:31.666Z,100.00
2018-03-27T06:05:59.320Z,100.00
2018-03-27T06:08:28.008Z,100.00
2018-03-27T06:10:55.635Z,100.00
2018-03-27T06:13:23.343Z,100.00
2018-03-27T06:15:51.000Z,100.00
2018-03-27T06:18:18.693Z,100.00
2018-03-27T06:20:46.381Z,100.00
2018-03-27T06:23:14.674Z,100.00
2018-03-27T06:25:42.286Z,100.00
2018-03-27T06:30:47.726Z,100.00
2018-03-27T06:33:15.399Z,100.00
2018-03-27T06:35:43.025Z,100.00
2018-03-27T06:38:10.706Z,100.00
2018-03-27T06:40:38.377Z,100.00
2018-03-27T06:43:06.087Z,100.00
2018-03-27T06:45:33.713Z,100.00
2018-03-27T06:48:01.398Z,100.00
2018-03-27T06:50:30.092Z,100.00
2018-03-27T06:52:57.791Z,100.00
2018-03-27T06:55:25.475Z,100.00
2018-03-27T06:57:53.201Z,100.00
2018-03-27T07:00:20.860Z,100.00
2018-03-27T07:02:48.618Z,100.00
2018-03-27T07:05:16.306Z,100.00
2018-03-27T07:07:44.048Z,100.00
2018-03-27T07:10:11.746Z,100.00
2018-03-27T07:12:39.466Z,100.00
2018-03-27T07:15:07.179Z,100.00
2018-03-27T07:17:34.906Z,100.00
2018-03-27T07:20:02.594Z,100.00
2018-03-27T07:22:30.276Z,100.00
2018-03-27T07:24:57.931Z,100.00
2018-03-27T07:27:26.475Z,100.00
2018-03-27T07:29:54.144Z,100.00
2018-03-27T07:32:21.836Z,100.00
2018-03-27T07:34:49.554Z,100.00
2018-03-27T07:37:17.211Z,100.00
2018-03-27T07:39:44.848Z,100.00
2018-03-27T07:42:12.473Z,100.00
2018-03-27T07:44:40.116Z,100.00
2018-03-27T07:47:07.741Z,100.00
2018-03-27T07:49:35.423Z,100.00
2018-03-27T07:52:03.030Z,100.00
2018-03-27T07:54:30.769Z,100.00
2018-03-27T07:56:59.398Z,100.00
2018-03-27T07:59:27.107Z,100.00
2018-03-27T08:01:54.740Z,100.00
2018-03-27T08:04:22.388Z,100.00
2018-03-27T08:06:50.070Z,100.00
2018-03-27T08:09:17.710Z,100.00
2018-03-27T08:11:45.371Z,100.00
2018-03-27T08:14:13.066Z,100.00
2018-03-27T08:16:40.854Z,100.00
2018-03-27T08:19:08.471Z,100.00
2018-03-27T08:21:36.144Z,100.00
2018-03-27T08:24:03.936Z,100.00
2018-03-27T08:26:31.573Z,100.00
2018-03-27T08:28:59.282Z,100.00
2018-03-27T08:31:27.821Z,100.00
2018-03-27T08:33:55.586Z,100.00
2018-03-27T08:36:23.342Z,100.00
2018-03-27T08:38:51.010Z,100.00
2018-03-27T08:41:18.700Z,100.00
2018-03-27T08:43:46.379Z,100.00
2018-03-27T08:46:14.880Z,100.00
2018-03-27T08:48:42.637Z,100.00
2018-03-27T08:51:10.350Z,100.00
2018-03-27T08:53:38.030Z,100.00
2018-03-27T08:56:05.745Z,100.00
2018-03-27T08:58:33.431Z,100.00
2018-03-27T09:01:01.148Z,100.00
2018-03-27T09:03:28.816Z,100.00
2018-03-27T09:05:56.533Z,100.00
2018-03-27T09:08:25.009Z,100.00
2018-03-27T09:10:52.743Z,100.00
2018-03-27T09:13:20.469Z,100.00
2018-03-27T09:15:48.183Z,100.00
2018-03-27T09:18:16.698Z,100.00
2018-03-27T09:20:44.404Z,100.00
2018-03-27T09:23:12.083Z,100.00
2018-03-27T09:25:39.786Z,100.00
2018-03-27T09:28:07.476Z,100.00
2018-03-27T09:30:35.196Z,100.00
2018-03-27T09:33:02.855Z,99.76
2018-03-27T09:35:30.582Z,100.00
2018-03-27T09:37:58.242Z,98.41
2018-03-27T09:40:25.946Z,99.54
2018-03-27T09:42:53.638Z,98.84
2018-03-27T09:45:21.366Z,98.88
2018-03-27T09:47:49.035Z,96.92
2018-03-27T09:50:16.670Z,98.51
2018-03-27T09:52:44.419Z,100.00
2018-03-27T09:55:12.091Z,100.00
2018-03-27T09:57:39.776Z,98.73
2018-03-27T10:00:07.472Z,97.00
2018-03-27T10:02:35.112Z,93.93
2018-03-27T10:05:02.752Z,94.79
2018-03-27T10:07:30.489Z,93.78
2018-03-27T10:09:58.181Z,94.17
2018-03-27T10:12:25.906Z,92.65
2018-03-27T10:14:53.501Z,92.71
2018-03-27T10:17:21.199Z,90.92
2018-03-27T10:19:48.885Z,90.28
2018-03-27T10:22:16.512Z,91.92
2018-03-27T10:24:44.459Z,89.58
2018-03-27T10:27:12.951Z,88.95
2018-03-27T10:29:42.788Z,87.49
2018-03-27T10:32:11.258Z,87.21
2018-03-27T10:34:39.961Z,86.42
2018-03-27T10:37:08.728Z,85.86
2018-03-27T10:39:37.549Z,84.26
2018-03-27T10:42:05.469Z,83.63
2018-03-27T10:44:34.109Z,82.74
2018-03-27T10:47:03.009Z,84.26
2018-03-27T10:49:31.038Z,83.37
2018-03-27T10:51:59.838Z,80.91
2018-03-27T10:54:28.373Z,83.08
2018-03-27T10:56:57.078Z,80.53
2018-03-27T10:59:25.539Z,78.00
2018-03-27T11:01:53.731Z,78.37
2018-03-27T11:04:22.328Z,74.78
2018-03-27T11:06:50.404Z,75.10
2018-03-27T11:09:18.491Z,72.85
2018-03-27T11:11:47.202Z,72.51
2018-03-27T11:14:15.567Z,74.99
2018-03-27T11:16:43.212Z,74.96
2018-03-27T11:19:10.881Z,72.41
2018-03-27T11:21:38.577Z,72.60
2018-03-27T11:24:06.299Z,72.25
2018-03-27T11:26:34.380Z,71.82
2018-03-27T11:29:02.085Z,71.98
2018-03-27T11:31:29.771Z,71.07
2018-03-27T11:33:57.426Z,67.14
2018-03-27T11:36:25.029Z,65.50
2018-03-27T11:38:52.653Z,66.48
2018-03-27T11:41:20.312Z,64.99
2018-03-27T11:43:48.247Z,67.79
2018-03-27T11:46:16.006Z,69.34
2018-03-27T11:48:43.650Z,70.98
2018-03-27T11:51:11.351Z,72.65
2018-03-27T11:53:39.008Z,71.47
2018-03-27T11:56:06.676Z,71.05
2018-03-27T11:58:34.453Z,72.24
2018-03-27T12:01:02.078Z,72.37
2018-03-27T12:03:29.763Z,73.26
2018-03-27T12:05:57.449Z,78.58
2018-03-27T12:08:25.185Z,82.42
2018-03-27T12:10:52.802Z,84.29
2018-03-27T12:13:20.508Z,85.10
2018-03-27T12:15:48.172Z,86.47
2018-03-27T12:18:15.829Z,87.13
2018-03-27T12:20:43.482Z,84.45
2018-03-27T12:23:11.153Z,82.93
2018-03-27T12:25:38.843Z,82.28
2018-03-27T12:28:06.507Z,82.08
2018-03-27T12:30:34.212Z,82.63
2018-03-27T12:33:01.935Z,82.38
2018-03-27T12:35:29.725Z,82.94
2018-03-27T12:37:58.275Z,84.58
2018-03-27T12:40:25.965Z,85.15
2018-03-27T12:42:53.686Z,86.11
2018-03-27T12:45:22.346Z,85.77
2018-03-27T12:47:50.024Z,85.84
2018-03-27T12:50:18.773Z,86.01
2018-03-27T12:52:46.405Z,85.04
2018-03-27T12:55:14.134Z,86.19
2018-03-27T12:57:41.811Z,84.90
2018-03-27T13:00:09.460Z,85.12
2018-03-27T13:02:37.091Z,86.80
2018-03-27T13:05:04.742Z,88.00
2018-03-27T13:07:32.384Z,87.10
2018-03-27T13:10:00.089Z,90.17
2018-03-27T13:12:27.759Z,88.28
2018-03-27T13:14:55.448Z,89.57
2018-03-27T13:17:23.147Z,89.53
2018-03-27T13:19:50.840Z,90.55
2018-03-27T13:22:18.516Z,87.52
2018-03-27T13:24:46.149Z,88.03
2018-03-27T13:27:13.838Z,87.03
2018-03-27T13:29:41.514Z,85.95
2018-03-27T13:32:09.240Z,86.92
2018-03-27T13:34:36.890Z,87.25
2018-03-27T13:37:04.612Z,87.47
2018-03-27T13:39:32.247Z,86.80
2018-03-27T13:41:59.920Z,84.98
2018-03-27T13:44:27.572Z,83.97
2018-03-27T13:46:55.286Z,83.04
2018-03-27T13:49:23.004Z,83.72
2018-03-27T13:51:50.721Z,85.28
2018-03-27T13:54:18.424Z,84.18
2018-03-27T13:56:46.129Z,83.27
2018-03-27T13:59:13.791Z,83.88
2018-03-27T14:01:42.267Z,83.90
2018-03-27T14:04:09.885Z,83.01
2018-03-27T14:06:37.614Z,83.19
2018-03-27T14:09:06.158Z,81.71
2018-03-27T14:11:33.868Z,83.12
2018-03-27T14:14:01.537Z,82.56
2018-03-27T14:16:29.204Z,82.82
2018-03-27T14:18:56.857Z,83.21
2018-03-27T14:21:24.491Z,82.07
2018-03-27T14:23:52.219Z,82.01
2018-03-27T14:26:19.887Z,81.41
2018-03-27T14:28:47.595Z,83.35
2018-03-27T14:31:15.277Z,80.17
2018-03-27T14:33:42.921Z,80.98
2018-03-27T14:36:10.627Z,77.70
2018-03-27T14:38:38.310Z,78.55
2018-03-27T14:41:06.798Z,78.08
2018-03-27T14:43:34.529Z,78.41
2018-03-27T14:46:02.245Z,76.08
2018-03-27T14:48:29.985Z,74.07
2018-03-27T14:50:57.648Z,75.59
2018-03-27T14:53:26.356Z,78.47
2018-03-27T14:55:54.014Z,79.33
2018-03-27T14:58:21.668Z,79.66
2018-03-27T15:00:49.343Z,81.76
2018-03-27T15:03:17.051Z,83.49
2018-03-27T15:05:44.731Z,82.18
2018-03-27T15:08:12.386Z,82.40
2018-03-27T15:10:40.047Z,82.16
2018-03-27T15:13:08.594Z,82.88
2018-03-27T15:15:36.268Z,84.23
2018-03-27T15:18:03.975Z,83.04
2018-03-27T15:20:31.600Z,82.17
2018-03-27T15:23:00.223Z,83.42
2018-03-27T15:25:27.884Z,83.73
2018-03-27T15:27:55.637Z,84.13
2018-03-27T15:30:23.290Z,81.35
2018-03-27T15:32:50.919Z,81.25
2018-03-27T15:35:18.533Z,79.55
2018-03-27T15:37:46.205Z,80.41
2018-03-27T15:40:13.931Z,82.05
2018-03-27T15:42:41.523Z,81.48
2018-03-27T15:45:09.241Z,78.85
2018-03-27T15:47:36.850Z,79.36
2018-03-27T15:50:04.583Z,78.78
2018-03-27T15:52:32.249Z,80.24
2018-03-27T15:54:59.961Z,78.46
2018-03-27T15:57:27.620Z,81.93
2018-03-27T15:59:55.296Z,80.72
2018-03-27T16:02:22.928Z,79.15
2018-03-27T16:04:50.570Z,78.57
2018-03-27T16:07:18.202Z,78.71
2018-03-27T16:09:45.851Z,80.35
2018-03-27T16:12:13.522Z,78.49
2018-03-27T16:14:41.227Z,78.83
2018-03-27T16:17:08.899Z,76.00
2018-03-27T16:19:36.826Z,76.18
2018-03-27T16:22:04.472Z,77.00
2018-03-27T16:24:32.157Z,76.49
2018-03-27T16:27:00.639Z,76.12
2018-03-27T16:29:28.345Z,77.44
2018-03-27T16:31:56.063Z,79.22
2018-03-27T16:34:23.694Z,77.12
2018-03-27T16:36:51.351Z,78.20
2018-03-27T16:39:19.005Z,79.49
2018-03-27T16:41:46.669Z,79.90
2018-03-27T16:44:14.331Z,79.84
2018-03-27T16:46:42.002Z,78.96
2018-03-27T16:49:09.715Z,78.91
2018-03-27T16:51:37.372Z,78.50
2018-03-27T16:54:04.969Z,79.28
2018-03-27T16:56:32.658Z,79.29
2018-03-27T16:59:00.310Z,80.13
2018-03-27T17:01:27.994Z,80.23
2018-03-27T17:03:55.575Z,80.85
2018-03-27T17:06:23.276Z,80.98
2018-03-27T17:08:50.883Z,81.54
2018-03-27T17:11:18.572Z,81.63
2018-03-27T17:13:46.176Z,81.82
2018-03-27T17:16:13.831Z,82.23
2018-03-27T17:18:41.522Z,83.47
2018-03-27T17:21:09.168Z,83.53
2018-03-27T17:23:36.840Z,84.00
2018-03-27T17:26:04.500Z,83.72
2018-03-27T17:28:32.091Z,83.36
2018-03-27T17:30:59.744Z,84.07
2018-03-27T17:33:27.371Z,84.54
2018-03-27T17:35:55.159Z,84.86
2018-03-27T17:38:22.780Z,86.24
2018-03-27T17:40:50.476Z,86.83
2018-03-27T17:43:18.069Z,86.80
2018-03-27T17:45:45.733Z,86.03
2018-03-27T17:48:13.326Z,86.88
2018-03-27T17:50:40.937Z,86.27
2018-03-27T17:53:08.581Z,85.63
2018-03-27T17:55:36.232Z,86.28
2018-03-27T17:58:03.949Z,86.10
2018-03-27T18:00:31.601Z,86.43
2018-03-27T18:02:59.252Z,86.74
2018-03-27T18:05:26.840Z,87.12
2018-03-27T18:07:54.509Z,87.58
2018-03-27T18:10:22.105Z,87.23
2018-03-27T18:12:49.763Z,88.96
2018-03-27T18:15:17.355Z,89.78
2018-03-27T18:17:44.980Z,88.61
2018-03-27T18:20:12.570Z,88.30
2018-03-27T18:22:40.338Z,87.49
2018-03-27T18:25:07.947Z,88.31
2018-03-27T18:27:37.269Z,87.70
2018-03-27T18:30:05.531Z,87.18
2018-03-27T18:32:33.185Z,87.04
2018-03-27T18:35:00.793Z,88.32
2018-03-27T18:37:28.429Z,88.53
2018-03-27T18:39:56.033Z,89.24
2018-03-27T18:42:23.674Z,88.18
2018-03-27T18:44:51.303Z,88.83
2018-03-27T18:47:18.951Z,88.76
2018-03-27T18:49:46.542Z,89.10
2018-03-27T18:52:14.182Z,89.58
2018-03-27T18:54:41.799Z,91.23
2018-03-27T18:57:09.492Z,90.63
2018-03-27T18:59:37.100Z,90.83
2018-03-27T19:02:04.773Z,90.81
2018-03-27T19:04:32.423Z,90.84
2018-03-27T19:07:00.101Z,91.02
2018-03-27T19:09:27.770Z,92.01
2018-03-27T19:11:55.412Z,92.46
2018-03-27T19:14:23.095Z,93.22
2018-03-27T19:16:50.733Z,94.48
2018-03-27T19:19:18.413Z,95.78
2018-03-27T19:21:46.035Z,95.71
2018-03-27T19:24:13.656Z,95.89
2018-03-27T19:26:41.281Z,96.69
2018-03-27T19:29:08.898Z,96.82
2018-03-27T19:31:36.500Z,97.10
2018-03-27T19:34:04.164Z,96.67
2018-03-27T19:36:31.762Z,97.04
2018-03-27T19:38:59.415Z,97.22
2018-03-27T19:41:27.037Z,98.29
2018-03-27T19:43:54.673Z,97.90
2018-03-27T19:46:22.283Z,98.60
2018-03-27T19:48:49.987Z,98.16
2018-03-27T19:51:17.629Z,97.15
2018-03-27T19:53:45.248Z,97.59
2018-03-27T19:56:12.885Z,98.51
2018-03-27T19:58:40.529Z,98.84
2018-03-27T20:01:08.152Z,98.26
2018-03-27T20:03:35.818Z,100.00
2018-03-27T20:06:03.522Z,99.94
2018-03-27T20:08:31.138Z,100.00
2018-03-27T20:10:58.786Z,100.00
2018-03-27T20:13:26.448Z,100.00
2018-03-27T20:15:54.093Z,100.00
2018-03-27T20:18:21.817Z,100.00
2018-03-27T20:20:49.528Z,100.00
2018-03-27T20:23:17.157Z,100.00
2018-03-27T20:25:44.809Z,100.00
2018-03-27T20:28:12.528Z,100.00
2018-03-27T20:30:40.147Z,100.00
2018-03-27T20:33:07.830Z,100.00
2018-03-27T20:35:35.497Z,100.00
2018-03-27T20:38:22.858Z,100.00
2018-03-27T20:40:50.678Z,100.00
2018-03-27T20:43:18.289Z,100.00
2018-03-27T20:45:45.951Z,100.00
2018-03-27T20:48:13.578Z,100.00
2018-03-27T20:50:41.317Z,100.00
2018-03-27T20:53:08.956Z,100.00
2018-03-27T20:55:36.728Z,100.00
2018-03-27T20:58:04.361Z,100.00
2018-03-27T21:00:32.021Z,100.00
2018-03-27T21:02:59.698Z,100.00
2018-03-27T21:05:27.451Z,100.00
2018-03-27T21:07:55.081Z,100.00
2018-03-27T21:10:22.780Z,100.00
2018-03-27T21:12:51.324Z,100.00
2018-03-27T21:15:18.951Z,100.00
2018-03-27T21:17:46.616Z,100.00
2018-03-27T21:20:14.256Z,100.00
2018-03-27T21:22:41.961Z,100.00
2018-03-27T21:25:09.593Z,100.00
2018-03-27T21:27:37.304Z,100.00
2018-03-27T21:30:04.988Z,100.00
2018-03-27T21:32:32.641Z,100.00
2018-03-27T21:35:00.282Z,100.00
2018-03-27T21:37:27.948Z,100.00
2018-03-27T21:39:55.545Z,100.00
2018-03-27T21:42:23.217Z,100.00
2018-03-27T21:44:50.839Z,100.00
2018-03-27T21:47:18.479Z,100.00
2018-03-27T21:49:46.198Z,100.00
2018-03-27T21:52:13.829Z,100.00
2018-03-27T21:54:41.502Z,100.00
2018-03-27T21:57:09.122Z,100.00
2018-03-27T21:59:36.766Z,100.00
2018-03-27T22:02:04.441Z,100.00
2018-03-27T22:04:32.204Z,100.00
2018-03-27T22:06:59.827Z,100.00
2018-03-27T22:09:27.495Z,100.00
2018-03-27T22:11:55.117Z,100.00
2018-03-27T22:14:22.781Z,100.00
2018-03-27T22:16:50.380Z,100.00
2018-03-27T22:19:18.010Z,100.00
2018-03-27T22:21:45.642Z,100.00
2018-03-27T22:24:13.305Z,100.00
2018-03-27T22:26:40.941Z,100.00
2018-03-27T22:29:08.629Z,100.00
2018-03-27T22:31:36.375Z,100.00
2018-03-27T22:34:04.049Z,100.00
2018-03-27T22:36:31.688Z,100.00
2018-03-27T22:38:59.347Z,100.00
2018-03-27T22:41:27.074Z,100.00
2018-03-27T22:43:54.728Z,100.00
2018-03-27T22:46:22.375Z,100.00
2018-03-27T22:48:50.125Z,100.00
2018-03-27T22:51:17.715Z,100.00
2018-03-27T22:53:45.385Z,100.00
2018-03-27T22:56:13.032Z,100.00
2018-03-27T22:58:40.688Z,100.00
2018-03-27T23:01:08.812Z,100.00
2018-03-27T23:15:28.010Z,100.00
2018-03-27T23:17:55.726Z,100.00
2018-03-27T23:32:52.556Z,100.00
2018-03-27T23:38:29.753Z,100.00
2018-03-27T23:40:57.488Z,100.00
2018-03-27T23:43:25.182Z,100.00
2018-03-27T23:45:52.854Z,100.00
2018-03-27T23:48:20.533Z,100.00
2018-03-27T23:50:48.170Z,100.00
2018-03-27T23:53:15.870Z,100.00
2018-03-27T23:55:43.502Z,100.00
2018-03-27T23:58:11.206Z,100.00
